<?xml version="1.0" encoding="UTF-8"?>
<gpx version="1.1" creator="https://www.youtrack.es" xsi:schemaLocation="http://www.topografix.com/GPX/1/1 http://www.topografix.com/GPX/1/1/gpx.xsd http://www.garmin.com/xmlschemas/GpxExtensions/v3 http://www.garmin.com/xmlschemas/GpxExtensionsv3.xsd http://www.garmin.com/xmlschemas/TrackPointExtension/v1 http://www.garmin.com/xmlschemas/TrackPointExtensionv1.xsd" xmlns:gpxtpx="http://www.garmin.com/xmlschemas/TrackPointExtension/v1" xmlns:gpxx="http://www.garmin.com/xmlschemas/GpxExtensions/v3" xmlns:xsi="http://www.w3.org/2001/XMLSchema-instance">
  <metadata>
    <link href="https://www.youtrack.es">
      <text>YouTrack.es</text>
    </link>
    <time>2026-05-10T13:45:57Z</time>
  </metadata>
  <trk>
    <src>https://www.youtrack.es</src>
    <link href="https://www.youtrack.es/ruta/468-entreno-can-mercader-series">
      <text>YouTrack.es</text>
    </link>
    <trkseg>
      <trkpt lat="41.3588120" lon="2.0944250">
        <ele>18.0</ele>
        <time>2018-04-29T15:42:50Z</time>
      </trkpt>
      <trkpt lat="41.3588030" lon="2.0944080">
        <ele>18.0</ele>
        <time>2018-04-29T15:42:51Z</time>
      </trkpt>
      <trkpt lat="41.3587670" lon="2.0943120">
        <ele>17.8</ele>
        <time>2018-04-29T15:42:54Z</time>
      </trkpt>
      <trkpt lat="41.3587510" lon="2.0942480">
        <ele>17.3</ele>
        <time>2018-04-29T15:42:56Z</time>
      </trkpt>
      <trkpt lat="41.3587290" lon="2.0941500">
        <ele>16.6</ele>
        <time>2018-04-29T15:42:59Z</time>
      </trkpt>
      <trkpt lat="41.3587030" lon="2.0940970">
        <ele>16.2</ele>
        <time>2018-04-29T15:43:01Z</time>
      </trkpt>
      <trkpt lat="41.3586800" lon="2.0940410">
        <ele>15.7</ele>
        <time>2018-04-29T15:43:03Z</time>
      </trkpt>
      <trkpt lat="41.3586570" lon="2.0939770">
        <ele>15.2</ele>
        <time>2018-04-29T15:43:05Z</time>
      </trkpt>
      <trkpt lat="41.3586360" lon="2.0939160">
        <ele>14.8</ele>
        <time>2018-04-29T15:43:07Z</time>
      </trkpt>
      <trkpt lat="41.3586170" lon="2.0938550">
        <ele>14.3</ele>
        <time>2018-04-29T15:43:09Z</time>
      </trkpt>
      <trkpt lat="41.3585860" lon="2.0937270">
        <ele>13.0</ele>
        <time>2018-04-29T15:43:13Z</time>
      </trkpt>
      <trkpt lat="41.3585750" lon="2.0936960">
        <ele>12.7</ele>
        <time>2018-04-29T15:43:14Z</time>
      </trkpt>
      <trkpt lat="41.3585510" lon="2.0936400">
        <ele>12.0</ele>
        <time>2018-04-29T15:43:16Z</time>
      </trkpt>
      <trkpt lat="41.3584890" lon="2.0935740">
        <ele>12.0</ele>
        <time>2018-04-29T15:43:19Z</time>
      </trkpt>
      <trkpt lat="41.3584650" lon="2.0935120">
        <ele>12.0</ele>
        <time>2018-04-29T15:43:21Z</time>
      </trkpt>
      <trkpt lat="41.3584540" lon="2.0934800">
        <ele>12.0</ele>
        <time>2018-04-29T15:43:22Z</time>
      </trkpt>
      <trkpt lat="41.3583790" lon="2.0932670">
        <ele>12.0</ele>
        <time>2018-04-29T15:43:28Z</time>
      </trkpt>
      <trkpt lat="41.3583450" lon="2.0931590">
        <ele>12.0</ele>
        <time>2018-04-29T15:43:31Z</time>
      </trkpt>
      <trkpt lat="41.3583050" lon="2.0930460">
        <ele>12.0</ele>
        <time>2018-04-29T15:43:34Z</time>
      </trkpt>
      <trkpt lat="41.3582720" lon="2.0929260">
        <ele>12.0</ele>
        <time>2018-04-29T15:43:37Z</time>
      </trkpt>
      <trkpt lat="41.3582590" lon="2.0928880">
        <ele>12.0</ele>
        <time>2018-04-29T15:43:38Z</time>
      </trkpt>
      <trkpt lat="41.3582260" lon="2.0927740">
        <ele>12.0</ele>
        <time>2018-04-29T15:43:41Z</time>
      </trkpt>
      <trkpt lat="41.3581720" lon="2.0925790">
        <ele>12.0</ele>
        <time>2018-04-29T15:43:46Z</time>
      </trkpt>
      <trkpt lat="41.3580920" lon="2.0923930">
        <ele>12.0</ele>
        <time>2018-04-29T15:43:52Z</time>
      </trkpt>
      <trkpt lat="41.3580780" lon="2.0923620">
        <ele>12.0</ele>
        <time>2018-04-29T15:43:53Z</time>
      </trkpt>
      <trkpt lat="41.3580350" lon="2.0922420">
        <ele>12.0</ele>
        <time>2018-04-29T15:43:57Z</time>
      </trkpt>
      <trkpt lat="41.3580320" lon="2.0922060">
        <ele>12.0</ele>
        <time>2018-04-29T15:43:58Z</time>
      </trkpt>
      <trkpt lat="41.3579570" lon="2.0920710">
        <ele>12.0</ele>
        <time>2018-04-29T15:44:03Z</time>
      </trkpt>
      <trkpt lat="41.3579400" lon="2.0920450">
        <ele>12.0</ele>
        <time>2018-04-29T15:44:04Z</time>
      </trkpt>
      <trkpt lat="41.3579370" lon="2.0918380">
        <ele>12.4</ele>
        <time>2018-04-29T15:44:09Z</time>
      </trkpt>
      <trkpt lat="41.3579290" lon="2.0918020">
        <ele>12.5</ele>
        <time>2018-04-29T15:44:10Z</time>
      </trkpt>
      <trkpt lat="41.3579030" lon="2.0916990">
        <ele>12.7</ele>
        <time>2018-04-29T15:44:13Z</time>
      </trkpt>
      <trkpt lat="41.3578760" lon="2.0914790">
        <ele>13.1</ele>
        <time>2018-04-29T15:44:19Z</time>
      </trkpt>
      <trkpt lat="41.3578760" lon="2.0914410">
        <ele>13.1</ele>
        <time>2018-04-29T15:44:20Z</time>
      </trkpt>
      <trkpt lat="41.3578370" lon="2.0913170">
        <ele>13.1</ele>
        <time>2018-04-29T15:44:24Z</time>
      </trkpt>
      <trkpt lat="41.3578020" lon="2.0912080">
        <ele>13.2</ele>
        <time>2018-04-29T15:44:28Z</time>
      </trkpt>
      <trkpt lat="41.3577920" lon="2.0911770">
        <ele>13.2</ele>
        <time>2018-04-29T15:44:29Z</time>
      </trkpt>
      <trkpt lat="41.3577250" lon="2.0909560">
        <ele>13.3</ele>
        <time>2018-04-29T15:44:38Z</time>
      </trkpt>
      <trkpt lat="41.3576750" lon="2.0907010">
        <ele>13.6</ele>
        <time>2018-04-29T15:44:47Z</time>
      </trkpt>
      <trkpt lat="41.3576650" lon="2.0906710">
        <ele>13.6</ele>
        <time>2018-04-29T15:44:48Z</time>
      </trkpt>
      <trkpt lat="41.3576340" lon="2.0904060">
        <ele>13.9</ele>
        <time>2018-04-29T15:44:56Z</time>
      </trkpt>
      <trkpt lat="41.3576160" lon="2.0902960">
        <ele>14.0</ele>
        <time>2018-04-29T15:44:59Z</time>
      </trkpt>
      <trkpt lat="41.3576130" lon="2.0902630">
        <ele>14.0</ele>
        <time>2018-04-29T15:45:00Z</time>
      </trkpt>
      <trkpt lat="41.3575640" lon="2.0900200">
        <ele>14.0</ele>
        <time>2018-04-29T15:45:07Z</time>
      </trkpt>
      <trkpt lat="41.3574830" lon="2.0898080">
        <ele>14.0</ele>
        <time>2018-04-29T15:45:15Z</time>
      </trkpt>
      <trkpt lat="41.3574280" lon="2.0895440">
        <ele>14.0</ele>
        <time>2018-04-29T15:45:22Z</time>
      </trkpt>
      <trkpt lat="41.3573950" lon="2.0892680">
        <ele>16.4</ele>
        <time>2018-04-29T15:45:29Z</time>
      </trkpt>
      <trkpt lat="41.3573580" lon="2.0890240">
        <ele>17.6</ele>
        <time>2018-04-29T15:45:36Z</time>
      </trkpt>
      <trkpt lat="41.3573520" lon="2.0889990">
        <ele>17.7</ele>
        <time>2018-04-29T15:45:37Z</time>
      </trkpt>
      <trkpt lat="41.3573450" lon="2.0889710">
        <ele>17.8</ele>
        <time>2018-04-29T15:45:38Z</time>
      </trkpt>
      <trkpt lat="41.3572980" lon="2.0888130">
        <ele>18.5</ele>
        <time>2018-04-29T15:45:43Z</time>
      </trkpt>
      <trkpt lat="41.3572960" lon="2.0887550">
        <ele>18.6</ele>
        <time>2018-04-29T15:45:45Z</time>
      </trkpt>
      <trkpt lat="41.3572930" lon="2.0884710">
        <ele>19.0</ele>
        <time>2018-04-29T15:45:53Z</time>
      </trkpt>
      <trkpt lat="41.3572090" lon="2.0882560">
        <ele>19.1</ele>
        <time>2018-04-29T15:45:59Z</time>
      </trkpt>
      <trkpt lat="41.3571770" lon="2.0880090">
        <ele>19.2</ele>
        <time>2018-04-29T15:46:06Z</time>
      </trkpt>
      <trkpt lat="41.3572160" lon="2.0877550">
        <ele>19.4</ele>
        <time>2018-04-29T15:46:13Z</time>
      </trkpt>
      <trkpt lat="41.3573090" lon="2.0875100">
        <ele>19.7</ele>
        <time>2018-04-29T15:46:20Z</time>
      </trkpt>
      <trkpt lat="41.3574970" lon="2.0875320">
        <ele>19.0</ele>
        <time>2018-04-29T15:46:27Z</time>
      </trkpt>
      <trkpt lat="41.3575210" lon="2.0875380">
        <ele>19.1</ele>
        <time>2018-04-29T15:46:28Z</time>
      </trkpt>
      <trkpt lat="41.3576400" lon="2.0876290">
        <ele>19.2</ele>
        <time>2018-04-29T15:46:38Z</time>
      </trkpt>
      <trkpt lat="41.3577000" lon="2.0875960">
        <ele>19.4</ele>
        <time>2018-04-29T15:51:50Z</time>
      </trkpt>
      <trkpt lat="41.3577330" lon="2.0874500">
        <ele>19.5</ele>
        <time>2018-04-29T15:51:52Z</time>
      </trkpt>
      <trkpt lat="41.3578390" lon="2.0874570">
        <ele>19.6</ele>
        <time>2018-04-29T15:51:55Z</time>
      </trkpt>
      <trkpt lat="41.3578950" lon="2.0874520">
        <ele>19.7</ele>
        <time>2018-04-29T15:51:57Z</time>
      </trkpt>
      <trkpt lat="41.3579280" lon="2.0874310">
        <ele>19.7</ele>
        <time>2018-04-29T15:51:58Z</time>
      </trkpt>
      <trkpt lat="41.3579780" lon="2.0874320">
        <ele>19.7</ele>
        <time>2018-04-29T15:52:00Z</time>
      </trkpt>
      <trkpt lat="41.3580460" lon="2.0874310">
        <ele>19.8</ele>
        <time>2018-04-29T15:52:02Z</time>
      </trkpt>
      <trkpt lat="41.3581150" lon="2.0874150">
        <ele>19.8</ele>
        <time>2018-04-29T15:52:05Z</time>
      </trkpt>
      <trkpt lat="41.3581790" lon="2.0872510">
        <ele>19.8</ele>
        <time>2018-04-29T15:52:09Z</time>
      </trkpt>
      <trkpt lat="41.3581490" lon="2.0870340">
        <ele>19.8</ele>
        <time>2018-04-29T15:52:15Z</time>
      </trkpt>
      <trkpt lat="41.3581020" lon="2.0868930">
        <ele>19.9</ele>
        <time>2018-04-29T15:52:19Z</time>
      </trkpt>
      <trkpt lat="41.3580750" lon="2.0868250">
        <ele>19.9</ele>
        <time>2018-04-29T15:52:21Z</time>
      </trkpt>
      <trkpt lat="41.3580650" lon="2.0867910">
        <ele>19.9</ele>
        <time>2018-04-29T15:52:22Z</time>
      </trkpt>
      <trkpt lat="41.3580090" lon="2.0866160">
        <ele>20.1</ele>
        <time>2018-04-29T15:52:27Z</time>
      </trkpt>
      <trkpt lat="41.3579830" lon="2.0865480">
        <ele>20.1</ele>
        <time>2018-04-29T15:52:29Z</time>
      </trkpt>
      <trkpt lat="41.3579200" lon="2.0863790">
        <ele>20.3</ele>
        <time>2018-04-29T15:52:34Z</time>
      </trkpt>
      <trkpt lat="41.3579090" lon="2.0863520">
        <ele>20.3</ele>
        <time>2018-04-29T15:52:35Z</time>
      </trkpt>
      <trkpt lat="41.3578890" lon="2.0863230">
        <ele>20.3</ele>
        <time>2018-04-29T15:52:36Z</time>
      </trkpt>
      <trkpt lat="41.3577810" lon="2.0862200">
        <ele>20.6</ele>
        <time>2018-04-29T15:52:41Z</time>
      </trkpt>
      <trkpt lat="41.3577590" lon="2.0862060">
        <ele>20.7</ele>
        <time>2018-04-29T15:52:42Z</time>
      </trkpt>
      <trkpt lat="41.3576650" lon="2.0861490">
        <ele>20.9</ele>
        <time>2018-04-29T15:52:46Z</time>
      </trkpt>
      <trkpt lat="41.3575570" lon="2.0860210">
        <ele>18.3</ele>
        <time>2018-04-29T15:52:51Z</time>
      </trkpt>
      <trkpt lat="41.3574770" lon="2.0859110">
        <ele>16.8</ele>
        <time>2018-04-29T15:52:55Z</time>
      </trkpt>
      <trkpt lat="41.3574590" lon="2.0858810">
        <ele>16.5</ele>
        <time>2018-04-29T15:52:56Z</time>
      </trkpt>
      <trkpt lat="41.3573940" lon="2.0857630">
        <ele>15.1</ele>
        <time>2018-04-29T15:53:00Z</time>
      </trkpt>
      <trkpt lat="41.3573750" lon="2.0857360">
        <ele>14.7</ele>
        <time>2018-04-29T15:53:01Z</time>
      </trkpt>
      <trkpt lat="41.3571980" lon="2.0855880">
        <ele>13.0</ele>
        <time>2018-04-29T15:53:08Z</time>
      </trkpt>
      <trkpt lat="41.3570240" lon="2.0854430">
        <ele>13.0</ele>
        <time>2018-04-29T15:53:15Z</time>
      </trkpt>
      <trkpt lat="41.3569980" lon="2.0854220">
        <ele>13.0</ele>
        <time>2018-04-29T15:53:16Z</time>
      </trkpt>
      <trkpt lat="41.3569260" lon="2.0853250">
        <ele>13.0</ele>
        <time>2018-04-29T15:53:20Z</time>
      </trkpt>
      <trkpt lat="41.3568400" lon="2.0851050">
        <ele>12.9</ele>
        <time>2018-04-29T15:53:27Z</time>
      </trkpt>
      <trkpt lat="41.3567430" lon="2.0848880">
        <ele>12.5</ele>
        <time>2018-04-29T15:53:34Z</time>
      </trkpt>
      <trkpt lat="41.3565860" lon="2.0847230">
        <ele>11.6</ele>
        <time>2018-04-29T15:53:41Z</time>
      </trkpt>
      <trkpt lat="41.3564140" lon="2.0845730">
        <ele>11.3</ele>
        <time>2018-04-29T15:53:48Z</time>
      </trkpt>
      <trkpt lat="41.3563920" lon="2.0845480">
        <ele>11.3</ele>
        <time>2018-04-29T15:53:49Z</time>
      </trkpt>
      <trkpt lat="41.3563710" lon="2.0845260">
        <ele>11.3</ele>
        <time>2018-04-29T15:53:50Z</time>
      </trkpt>
      <trkpt lat="41.3562000" lon="2.0844070">
        <ele>12.2</ele>
        <time>2018-04-29T15:53:57Z</time>
      </trkpt>
      <trkpt lat="41.3560780" lon="2.0845310">
        <ele>13.0</ele>
        <time>2018-04-29T15:54:03Z</time>
      </trkpt>
      <trkpt lat="41.3560710" lon="2.0845660">
        <ele>12.9</ele>
        <time>2018-04-29T15:54:04Z</time>
      </trkpt>
      <trkpt lat="41.3560980" lon="2.0847180">
        <ele>12.6</ele>
        <time>2018-04-29T15:54:08Z</time>
      </trkpt>
      <trkpt lat="41.3561460" lon="2.0848160">
        <ele>12.4</ele>
        <time>2018-04-29T15:54:11Z</time>
      </trkpt>
      <trkpt lat="41.3561920" lon="2.0849000">
        <ele>12.2</ele>
        <time>2018-04-29T15:54:14Z</time>
      </trkpt>
      <trkpt lat="41.3562880" lon="2.0851210">
        <ele>11.8</ele>
        <time>2018-04-29T15:54:21Z</time>
      </trkpt>
      <trkpt lat="41.3564010" lon="2.0853350">
        <ele>11.3</ele>
        <time>2018-04-29T15:54:28Z</time>
      </trkpt>
      <trkpt lat="41.3564390" lon="2.0853840">
        <ele>11.2</ele>
        <time>2018-04-29T15:54:30Z</time>
      </trkpt>
      <trkpt lat="41.3564590" lon="2.0854070">
        <ele>11.1</ele>
        <time>2018-04-29T15:54:31Z</time>
      </trkpt>
      <trkpt lat="41.3565150" lon="2.0854770">
        <ele>11.0</ele>
        <time>2018-04-29T15:54:34Z</time>
      </trkpt>
      <trkpt lat="41.3566380" lon="2.0856830">
        <ele>11.5</ele>
        <time>2018-04-29T15:54:42Z</time>
      </trkpt>
      <trkpt lat="41.3566460" lon="2.0857220">
        <ele>11.9</ele>
        <time>2018-04-29T15:54:43Z</time>
      </trkpt>
      <trkpt lat="41.3566460" lon="2.0857640">
        <ele>12.2</ele>
        <time>2018-04-29T15:54:44Z</time>
      </trkpt>
      <trkpt lat="41.3566610" lon="2.0859590">
        <ele>13.9</ele>
        <time>2018-04-29T15:54:49Z</time>
      </trkpt>
      <trkpt lat="41.3566650" lon="2.0859980">
        <ele>14.1</ele>
        <time>2018-04-29T15:54:50Z</time>
      </trkpt>
      <trkpt lat="41.3567220" lon="2.0862570">
        <ele>15.0</ele>
        <time>2018-04-29T15:54:57Z</time>
      </trkpt>
      <trkpt lat="41.3567650" lon="2.0863870">
        <ele>15.6</ele>
        <time>2018-04-29T15:55:01Z</time>
      </trkpt>
      <trkpt lat="41.3567820" lon="2.0864190">
        <ele>15.8</ele>
        <time>2018-04-29T15:55:02Z</time>
      </trkpt>
      <trkpt lat="41.3568360" lon="2.0865520">
        <ele>16.3</ele>
        <time>2018-04-29T15:55:06Z</time>
      </trkpt>
      <trkpt lat="41.3568980" lon="2.0867800">
        <ele>16.8</ele>
        <time>2018-04-29T15:55:13Z</time>
      </trkpt>
      <trkpt lat="41.3570220" lon="2.0869810">
        <ele>17.2</ele>
        <time>2018-04-29T15:55:20Z</time>
      </trkpt>
      <trkpt lat="41.3571590" lon="2.0871650">
        <ele>17.6</ele>
        <time>2018-04-29T15:55:27Z</time>
      </trkpt>
      <trkpt lat="41.3573110" lon="2.0873240">
        <ele>18.1</ele>
        <time>2018-04-29T15:55:34Z</time>
      </trkpt>
      <trkpt lat="41.3574890" lon="2.0874170">
        <ele>18.8</ele>
        <time>2018-04-29T15:55:41Z</time>
      </trkpt>
      <trkpt lat="41.3575340" lon="2.0874380">
        <ele>18.9</ele>
        <time>2018-04-29T15:55:43Z</time>
      </trkpt>
      <trkpt lat="41.3577020" lon="2.0875810">
        <ele>19.4</ele>
        <time>2018-04-29T16:06:43Z</time>
      </trkpt>
      <trkpt lat="41.3577050" lon="2.0875800">
        <ele>19.4</ele>
        <time>2018-04-29T16:06:44Z</time>
      </trkpt>
      <trkpt lat="41.3577600" lon="2.0875430">
        <ele>19.5</ele>
        <time>2018-04-29T16:06:47Z</time>
      </trkpt>
      <trkpt lat="41.3578450" lon="2.0874960">
        <ele>19.6</ele>
        <time>2018-04-29T16:06:50Z</time>
      </trkpt>
      <trkpt lat="41.3579380" lon="2.0874650">
        <ele>19.7</ele>
        <time>2018-04-29T16:06:53Z</time>
      </trkpt>
      <trkpt lat="41.3580310" lon="2.0874470">
        <ele>19.7</ele>
        <time>2018-04-29T16:06:56Z</time>
      </trkpt>
      <trkpt lat="41.3581210" lon="2.0874250">
        <ele>19.8</ele>
        <time>2018-04-29T16:06:59Z</time>
      </trkpt>
      <trkpt lat="41.3581500" lon="2.0874090">
        <ele>19.8</ele>
        <time>2018-04-29T16:07:00Z</time>
      </trkpt>
      <trkpt lat="41.3581740" lon="2.0873870">
        <ele>19.8</ele>
        <time>2018-04-29T16:07:01Z</time>
      </trkpt>
      <trkpt lat="41.3581890" lon="2.0871600">
        <ele>19.8</ele>
        <time>2018-04-29T16:07:07Z</time>
      </trkpt>
      <trkpt lat="41.3581490" lon="2.0870420">
        <ele>19.8</ele>
        <time>2018-04-29T16:07:10Z</time>
      </trkpt>
      <trkpt lat="41.3580990" lon="2.0869290">
        <ele>19.9</ele>
        <time>2018-04-29T16:07:13Z</time>
      </trkpt>
      <trkpt lat="41.3580630" lon="2.0868620">
        <ele>19.9</ele>
        <time>2018-04-29T16:07:15Z</time>
      </trkpt>
      <trkpt lat="41.3580460" lon="2.0868250">
        <ele>20.0</ele>
        <time>2018-04-29T16:07:16Z</time>
      </trkpt>
      <trkpt lat="41.3580290" lon="2.0867880">
        <ele>20.0</ele>
        <time>2018-04-29T16:07:17Z</time>
      </trkpt>
      <trkpt lat="41.3579970" lon="2.0867200">
        <ele>20.0</ele>
        <time>2018-04-29T16:07:19Z</time>
      </trkpt>
      <trkpt lat="41.3579460" lon="2.0866180">
        <ele>20.2</ele>
        <time>2018-04-29T16:07:22Z</time>
      </trkpt>
      <trkpt lat="41.3579110" lon="2.0865460">
        <ele>20.2</ele>
        <time>2018-04-29T16:07:24Z</time>
      </trkpt>
      <trkpt lat="41.3578950" lon="2.0865120">
        <ele>20.3</ele>
        <time>2018-04-29T16:07:25Z</time>
      </trkpt>
      <trkpt lat="41.3578330" lon="2.0863740">
        <ele>20.4</ele>
        <time>2018-04-29T16:07:29Z</time>
      </trkpt>
      <trkpt lat="41.3578140" lon="2.0863430">
        <ele>20.4</ele>
        <time>2018-04-29T16:07:30Z</time>
      </trkpt>
      <trkpt lat="41.3576330" lon="2.0862300">
        <ele>21.0</ele>
        <time>2018-04-29T16:07:37Z</time>
      </trkpt>
      <trkpt lat="41.3575460" lon="2.0861290">
        <ele>19.2</ele>
        <time>2018-04-29T16:07:41Z</time>
      </trkpt>
      <trkpt lat="41.3575270" lon="2.0861000">
        <ele>18.6</ele>
        <time>2018-04-29T16:07:42Z</time>
      </trkpt>
      <trkpt lat="41.3573940" lon="2.0858970">
        <ele>15.9</ele>
        <time>2018-04-29T16:07:49Z</time>
      </trkpt>
      <trkpt lat="41.3573380" lon="2.0858210">
        <ele>14.9</ele>
        <time>2018-04-29T16:07:52Z</time>
      </trkpt>
      <trkpt lat="41.3572950" lon="2.0857660">
        <ele>13.9</ele>
        <time>2018-04-29T16:07:54Z</time>
      </trkpt>
      <trkpt lat="41.3571340" lon="2.0856340">
        <ele>13.0</ele>
        <time>2018-04-29T16:08:00Z</time>
      </trkpt>
      <trkpt lat="41.3569640" lon="2.0855770">
        <ele>12.9</ele>
        <time>2018-04-29T16:08:06Z</time>
      </trkpt>
      <trkpt lat="41.3569380" lon="2.0855800">
        <ele>12.8</ele>
        <time>2018-04-29T16:08:07Z</time>
      </trkpt>
      <trkpt lat="41.3568810" lon="2.0856310">
        <ele>12.6</ele>
        <time>2018-04-29T16:08:10Z</time>
      </trkpt>
      <trkpt lat="41.3568170" lon="2.0858650">
        <ele>12.4</ele>
        <time>2018-04-29T16:08:17Z</time>
      </trkpt>
      <trkpt lat="41.3567030" lon="2.0860560">
        <ele>14.3</ele>
        <time>2018-04-29T16:08:24Z</time>
      </trkpt>
      <trkpt lat="41.3567040" lon="2.0863270">
        <ele>15.2</ele>
        <time>2018-04-29T16:08:31Z</time>
      </trkpt>
      <trkpt lat="41.3568070" lon="2.0865420">
        <ele>16.2</ele>
        <time>2018-04-29T16:08:37Z</time>
      </trkpt>
      <trkpt lat="41.3568810" lon="2.0867960">
        <ele>16.8</ele>
        <time>2018-04-29T16:08:44Z</time>
      </trkpt>
      <trkpt lat="41.3569310" lon="2.0869250">
        <ele>17.0</ele>
        <time>2018-04-29T16:08:48Z</time>
      </trkpt>
      <trkpt lat="41.3569470" lon="2.0869520">
        <ele>17.1</ele>
        <time>2018-04-29T16:08:49Z</time>
      </trkpt>
      <trkpt lat="41.3570360" lon="2.0870620">
        <ele>17.3</ele>
        <time>2018-04-29T16:08:53Z</time>
      </trkpt>
      <trkpt lat="41.3570560" lon="2.0870910">
        <ele>17.3</ele>
        <time>2018-04-29T16:08:54Z</time>
      </trkpt>
      <trkpt lat="41.3571300" lon="2.0872110">
        <ele>17.6</ele>
        <time>2018-04-29T16:08:58Z</time>
      </trkpt>
      <trkpt lat="41.3571470" lon="2.0872400">
        <ele>17.6</ele>
        <time>2018-04-29T16:08:59Z</time>
      </trkpt>
      <trkpt lat="41.3572510" lon="2.0873450">
        <ele>18.0</ele>
        <time>2018-04-29T16:09:03Z</time>
      </trkpt>
      <trkpt lat="41.3574320" lon="2.0874280">
        <ele>18.6</ele>
        <time>2018-04-29T16:09:10Z</time>
      </trkpt>
      <trkpt lat="41.3575490" lon="2.0874780">
        <ele>19.0</ele>
        <time>2018-04-29T16:09:15Z</time>
      </trkpt>
      <trkpt lat="41.3573870" lon="2.0873950">
        <ele>18.6</ele>
        <time>2018-04-29T16:12:47Z</time>
      </trkpt>
      <trkpt lat="41.3573760" lon="2.0873960">
        <ele>18.6</ele>
        <time>2018-04-29T16:12:48Z</time>
      </trkpt>
      <trkpt lat="41.3573640" lon="2.0874060">
        <ele>18.5</ele>
        <time>2018-04-29T16:12:49Z</time>
      </trkpt>
      <trkpt lat="41.3573060" lon="2.0875000">
        <ele>18.3</ele>
        <time>2018-04-29T16:12:53Z</time>
      </trkpt>
      <trkpt lat="41.3572980" lon="2.0875340">
        <ele>18.6</ele>
        <time>2018-04-29T16:12:54Z</time>
      </trkpt>
      <trkpt lat="41.3572880" lon="2.0875680">
        <ele>19.0</ele>
        <time>2018-04-29T16:12:55Z</time>
      </trkpt>
      <trkpt lat="41.3572730" lon="2.0876290">
        <ele>19.2</ele>
        <time>2018-04-29T16:12:57Z</time>
      </trkpt>
      <trkpt lat="41.3572350" lon="2.0877640">
        <ele>19.4</ele>
        <time>2018-04-29T16:13:01Z</time>
      </trkpt>
      <trkpt lat="41.3572380" lon="2.0878390">
        <ele>19.3</ele>
        <time>2018-04-29T16:13:03Z</time>
      </trkpt>
      <trkpt lat="41.3572540" lon="2.0879460">
        <ele>19.2</ele>
        <time>2018-04-29T16:13:06Z</time>
      </trkpt>
      <trkpt lat="41.3572560" lon="2.0879840">
        <ele>19.2</ele>
        <time>2018-04-29T16:13:07Z</time>
      </trkpt>
      <trkpt lat="41.3572550" lon="2.0880190">
        <ele>19.2</ele>
        <time>2018-04-29T16:13:08Z</time>
      </trkpt>
      <trkpt lat="41.3572660" lon="2.0880940">
        <ele>19.1</ele>
        <time>2018-04-29T16:13:10Z</time>
      </trkpt>
      <trkpt lat="41.3573390" lon="2.0883440">
        <ele>19.0</ele>
        <time>2018-04-29T16:13:18Z</time>
      </trkpt>
      <trkpt lat="41.3574030" lon="2.0885670">
        <ele>19.0</ele>
        <time>2018-04-29T16:13:24Z</time>
      </trkpt>
      <trkpt lat="41.3575030" lon="2.0887860">
        <ele>18.2</ele>
        <time>2018-04-29T16:13:31Z</time>
      </trkpt>
      <trkpt lat="41.3576040" lon="2.0890170">
        <ele>17.3</ele>
        <time>2018-04-29T16:13:37Z</time>
      </trkpt>
      <trkpt lat="41.3576330" lon="2.0891770">
        <ele>13.0</ele>
        <time>2018-04-29T16:13:42Z</time>
      </trkpt>
      <trkpt lat="41.3576780" lon="2.0894410">
        <ele>13.0</ele>
        <time>2018-04-29T16:13:49Z</time>
      </trkpt>
      <trkpt lat="41.3577200" lon="2.0896910">
        <ele>13.0</ele>
        <time>2018-04-29T16:13:56Z</time>
      </trkpt>
      <trkpt lat="41.3577250" lon="2.0897310">
        <ele>13.0</ele>
        <time>2018-04-29T16:13:57Z</time>
      </trkpt>
      <trkpt lat="41.3577330" lon="2.0897690">
        <ele>13.0</ele>
        <time>2018-04-29T16:13:58Z</time>
      </trkpt>
      <trkpt lat="41.3577480" lon="2.0898720">
        <ele>13.1</ele>
        <time>2018-04-29T16:14:01Z</time>
      </trkpt>
      <trkpt lat="41.3577900" lon="2.0901100">
        <ele>13.0</ele>
        <time>2018-04-29T16:14:08Z</time>
      </trkpt>
      <trkpt lat="41.3578100" lon="2.0901880">
        <ele>13.0</ele>
        <time>2018-04-29T16:14:10Z</time>
      </trkpt>
      <trkpt lat="41.3578660" lon="2.0904370">
        <ele>13.0</ele>
        <time>2018-04-29T16:14:17Z</time>
      </trkpt>
      <trkpt lat="41.3578690" lon="2.0904720">
        <ele>13.0</ele>
        <time>2018-04-29T16:14:18Z</time>
      </trkpt>
      <trkpt lat="41.3578750" lon="2.0905090">
        <ele>12.9</ele>
        <time>2018-04-29T16:14:19Z</time>
      </trkpt>
      <trkpt lat="41.3579110" lon="2.0907730">
        <ele>12.9</ele>
        <time>2018-04-29T16:14:26Z</time>
      </trkpt>
      <trkpt lat="41.3579540" lon="2.0910290">
        <ele>12.9</ele>
        <time>2018-04-29T16:14:33Z</time>
      </trkpt>
      <trkpt lat="41.3579660" lon="2.0910930">
        <ele>12.9</ele>
        <time>2018-04-29T16:14:35Z</time>
      </trkpt>
      <trkpt lat="41.3579700" lon="2.0911280">
        <ele>12.9</ele>
        <time>2018-04-29T16:14:36Z</time>
      </trkpt>
      <trkpt lat="41.3579720" lon="2.0911560">
        <ele>12.9</ele>
        <time>2018-04-29T16:14:37Z</time>
      </trkpt>
      <trkpt lat="41.3579890" lon="2.0913810">
        <ele>12.9</ele>
        <time>2018-04-29T16:14:44Z</time>
      </trkpt>
      <trkpt lat="41.3580420" lon="2.0916220">
        <ele>13.0</ele>
        <time>2018-04-29T16:14:51Z</time>
      </trkpt>
      <trkpt lat="41.3580890" lon="2.0918450">
        <ele>12.2</ele>
        <time>2018-04-29T16:14:58Z</time>
      </trkpt>
      <trkpt lat="41.3581720" lon="2.0920750">
        <ele>12.0</ele>
        <time>2018-04-29T16:15:04Z</time>
      </trkpt>
      <trkpt lat="41.3581960" lon="2.0921490">
        <ele>12.0</ele>
        <time>2018-04-29T16:15:06Z</time>
      </trkpt>
      <trkpt lat="41.3582110" lon="2.0921920">
        <ele>12.0</ele>
        <time>2018-04-29T16:15:07Z</time>
      </trkpt>
      <trkpt lat="41.3582580" lon="2.0923460">
        <ele>12.0</ele>
        <time>2018-04-29T16:15:11Z</time>
      </trkpt>
      <trkpt lat="41.3582800" lon="2.0924060">
        <ele>12.0</ele>
        <time>2018-04-29T16:15:13Z</time>
      </trkpt>
      <trkpt lat="41.3583540" lon="2.0925460">
        <ele>12.0</ele>
        <time>2018-04-29T16:15:18Z</time>
      </trkpt>
      <trkpt lat="41.3583320" lon="2.0926840">
        <ele>12.0</ele>
        <time>2018-04-29T16:15:22Z</time>
      </trkpt>
      <trkpt lat="41.3583190" lon="2.0927230">
        <ele>12.0</ele>
        <time>2018-04-29T16:15:23Z</time>
      </trkpt>
      <trkpt lat="41.3583150" lon="2.0927620">
        <ele>12.0</ele>
        <time>2018-04-29T16:15:24Z</time>
      </trkpt>
      <trkpt lat="41.3583170" lon="2.0928340">
        <ele>12.0</ele>
        <time>2018-04-29T16:15:26Z</time>
      </trkpt>
      <trkpt lat="41.3583980" lon="2.0930910">
        <ele>12.0</ele>
        <time>2018-04-29T16:15:33Z</time>
      </trkpt>
      <trkpt lat="41.3584520" lon="2.0933240">
        <ele>12.0</ele>
        <time>2018-04-29T16:15:39Z</time>
      </trkpt>
      <trkpt lat="41.3585050" lon="2.0934190">
        <ele>12.0</ele>
        <time>2018-04-29T16:15:42Z</time>
      </trkpt>
      <trkpt lat="41.3585400" lon="2.0935200">
        <ele>12.0</ele>
        <time>2018-04-29T16:15:45Z</time>
      </trkpt>
      <trkpt lat="41.3585690" lon="2.0936260">
        <ele>12.0</ele>
        <time>2018-04-29T16:15:48Z</time>
      </trkpt>
      <trkpt lat="41.3586000" lon="2.0937740">
        <ele>13.5</ele>
        <time>2018-04-29T16:15:52Z</time>
      </trkpt>
      <trkpt lat="41.3586630" lon="2.0940060">
        <ele>15.5</ele>
        <time>2018-04-29T16:15:59Z</time>
      </trkpt>
      <trkpt lat="41.3586880" lon="2.0941520">
        <ele>16.5</ele>
        <time>2018-04-29T16:16:03Z</time>
      </trkpt>
      <trkpt lat="41.3587480" lon="2.0943470">
        <ele>18.0</ele>
        <time>2018-04-29T16:16:08Z</time>
      </trkpt>
      <trkpt lat="41.3587600" lon="2.0943890">
        <ele>18.0</ele>
        <time>2018-04-29T16:16:09Z</time>
      </trkpt>
      <trkpt lat="41.3587800" lon="2.0944710">
        <ele>18.0</ele>
        <time>2018-04-29T16:16:11Z</time>
      </trkpt>
      <trkpt lat="41.3588810" lon="2.0946980">
        <ele>17.9</ele>
        <time>2018-04-29T16:16:18Z</time>
      </trkpt>
      <trkpt lat="41.3589630" lon="2.0949660">
        <ele>18.0</ele>
        <time>2018-04-29T16:16:25Z</time>
      </trkpt>
      <trkpt lat="41.3589200" lon="2.0950770">
        <ele>18.0</ele>
        <time>2018-04-29T16:16:27Z</time>
      </trkpt>
      <trkpt lat="41.3589090" lon="2.0951240">
        <ele>18.0</ele>
        <time>2018-04-29T16:16:28Z</time>
      </trkpt>
      <trkpt lat="41.3589400" lon="2.0952760">
        <ele>18.0</ele>
        <time>2018-04-29T16:16:32Z</time>
      </trkpt>
      <trkpt lat="41.3590030" lon="2.0953220">
        <ele>18.0</ele>
        <time>2018-04-29T16:16:36Z</time>
      </trkpt>
      <trkpt lat="41.3590720" lon="2.0955570">
        <ele>18.0</ele>
        <time>2018-04-29T16:16:43Z</time>
      </trkpt>
      <trkpt lat="41.3591330" lon="2.0957310">
        <ele>17.2</ele>
        <time>2018-04-29T16:16:48Z</time>
      </trkpt>
      <trkpt lat="41.3591680" lon="2.0958000">
        <ele>16.8</ele>
        <time>2018-04-29T16:16:50Z</time>
      </trkpt>
      <trkpt lat="41.3592850" lon="2.0960160">
        <ele>17.7</ele>
        <time>2018-04-29T16:16:57Z</time>
      </trkpt>
      <trkpt lat="41.3593040" lon="2.0960620">
        <ele>18.6</ele>
        <time>2018-04-29T16:16:58Z</time>
      </trkpt>
      <trkpt lat="41.3593040" lon="2.0962240">
        <ele>21.3</ele>
        <time>2018-04-29T16:17:02Z</time>
      </trkpt>
      <trkpt lat="41.3593040" lon="2.0962640">
        <ele>22.0</ele>
        <time>2018-04-29T16:17:03Z</time>
      </trkpt>
      <trkpt lat="41.3593150" lon="2.0963500">
        <ele>21.7</ele>
        <time>2018-04-29T16:17:05Z</time>
      </trkpt>
      <trkpt lat="41.3593460" lon="2.0965940">
        <ele>21.0</ele>
        <time>2018-04-29T16:17:11Z</time>
      </trkpt>
      <trkpt lat="41.3593890" lon="2.0967840">
        <ele>20.6</ele>
        <time>2018-04-29T16:17:16Z</time>
      </trkpt>
      <trkpt lat="41.3593940" lon="2.0968250">
        <ele>20.5</ele>
        <time>2018-04-29T16:17:17Z</time>
      </trkpt>
      <trkpt lat="41.3594100" lon="2.0969090">
        <ele>20.4</ele>
        <time>2018-04-29T16:17:19Z</time>
      </trkpt>
      <trkpt lat="41.3594490" lon="2.0970670">
        <ele>20.0</ele>
        <time>2018-04-29T16:17:23Z</time>
      </trkpt>
      <trkpt lat="41.3594510" lon="2.0971030">
        <ele>20.0</ele>
        <time>2018-04-29T16:17:24Z</time>
      </trkpt>
      <trkpt lat="41.3594600" lon="2.0971850">
        <ele>19.8</ele>
        <time>2018-04-29T16:17:26Z</time>
      </trkpt>
      <trkpt lat="41.3594820" lon="2.0973220">
        <ele>19.6</ele>
        <time>2018-04-29T16:17:29Z</time>
      </trkpt>
      <trkpt lat="41.3594820" lon="2.0973700">
        <ele>19.5</ele>
        <time>2018-04-29T16:17:30Z</time>
      </trkpt>
      <trkpt lat="41.3594870" lon="2.0975620">
        <ele>19.2</ele>
        <time>2018-04-29T16:17:34Z</time>
      </trkpt>
      <trkpt lat="41.3594810" lon="2.0976050">
        <ele>19.1</ele>
        <time>2018-04-29T16:17:35Z</time>
      </trkpt>
      <trkpt lat="41.3594720" lon="2.0976980">
        <ele>19.0</ele>
        <time>2018-04-29T16:17:38Z</time>
      </trkpt>
      <trkpt lat="41.3593580" lon="2.0978370">
        <ele>18.5</ele>
        <time>2018-04-29T16:17:45Z</time>
      </trkpt>
      <trkpt lat="41.3593420" lon="2.0978630">
        <ele>18.4</ele>
        <time>2018-04-29T16:17:46Z</time>
      </trkpt>
      <trkpt lat="41.3591600" lon="2.0979580">
        <ele>17.7</ele>
        <time>2018-04-29T16:17:54Z</time>
      </trkpt>
    </trkseg>
  </trk>
</gpx>
